createdAt,value
2018-11-04T00:00:55.414Z,20.23
2018-11-04T00:01:58.795Z,20.20
2018-11-04T00:03:02.196Z,20.18
2018-11-04T00:04:05.848Z,20.16
2018-11-04T00:05:09.259Z,20.13
2018-11-04T00:06:12.674Z,20.13
2018-11-04T00:07:16.112Z,20.11
2018-11-04T00:08:19.565Z,20.09
2018-11-04T00:09:23.019Z,20.07
2018-11-04T00:10:26.422Z,20.06
2018-11-04T00:11:29.863Z,20.04
2018-11-04T00:12:33.384Z,20.03
2018-11-04T00:13:36.889Z,20.01
2018-11-04T00:14:40.293Z,20.00
2018-11-04T00:15:43.715Z,19.98
2018-11-04T00:16:47.118Z,19.98
2018-11-04T00:17:50.519Z,19.97
2018-11-04T00:18:53.907Z,19.96
2018-11-04T00:19:57.314Z,19.95
2018-11-04T00:21:00.694Z,19.94
2018-11-04T00:22:04.179Z,19.94
2018-11-04T00:23:07.630Z,19.93
2018-11-04T00:24:11.061Z,19.93
2018-11-04T00:25:15.084Z,19.92
2018-11-04T00:26:18.473Z,19.91
2018-11-04T00:27:21.964Z,19.90
2018-11-04T00:28:26.872Z,19.89
2018-11-04T00:29:30.324Z,19.89
2018-11-04T00:30:33.780Z,19.87
2018-11-04T00:31:37.189Z,19.86
2018-11-04T00:32:41.049Z,19.86
2018-11-04T00:33:44.459Z,19.84
2018-11-04T00:34:47.896Z,19.83
2018-11-04T00:35:51.387Z,19.82
2018-11-04T00:36:54.817Z,19.82
2018-11-04T00:37:58.203Z,19.80
2018-11-04T00:39:01.688Z,19.79
2018-11-04T00:40:05.578Z,19.79
2018-11-04T00:41:08.996Z,19.77
2018-11-04T00:42:12.450Z,19.76
2018-11-04T00:43:15.882Z,19.76
2018-11-04T00:44:19.312Z,19.75
2018-11-04T00:45:22.801Z,19.76
2018-11-04T00:46:26.166Z,19.75
2018-11-04T00:47:29.691Z,19.74
2018-11-04T00:48:33.149Z,19.74
2018-11-04T00:49:36.530Z,19.75
2018-11-04T00:50:39.912Z,19.72
2018-11-04T00:51:43.302Z,19.72
2018-11-04T00:52:46.677Z,19.71
2018-11-04T00:53:50.079Z,19.71
2018-11-04T00:54:53.494Z,19.70
2018-11-04T00:55:56.861Z,19.70
2018-11-04T00:57:00.315Z,19.70
2018-11-04T00:58:03.729Z,19.69
2018-11-04T00:59:07.227Z,19.68
2018-11-04T01:00:15.739Z,19.68
2018-11-04T01:01:19.187Z,19.67
2018-11-04T01:02:22.631Z,19.68
2018-11-04T01:03:26.052Z,19.66
2018-11-04T01:04:29.470Z,19.64
2018-11-04T01:05:32.925Z,19.64
2018-11-04T01:06:36.350Z,19.63
2018-11-04T01:07:40.324Z,19.62
2018-11-04T01:08:43.733Z,19.62
2018-11-04T01:09:47.156Z,19.62
2018-11-04T01:10:50.565Z,19.61
2018-11-04T01:11:53.997Z,19.61
2018-11-04T01:12:57.500Z,19.59
2018-11-04T01:14:00.906Z,19.59
2018-11-04T01:15:04.591Z,19.58
2018-11-04T01:16:08.094Z,19.57
2018-11-04T01:17:11.583Z,19.57
2018-11-04T01:18:15.056Z,19.56
2018-11-04T01:19:18.429Z,19.56
2018-11-04T01:20:22.125Z,19.55
2018-11-04T01:21:25.514Z,19.55
2018-11-04T01:22:29.117Z,19.54
2018-11-04T01:23:32.501Z,19.54
2018-11-04T01:24:35.940Z,19.53
2018-11-04T01:25:39.362Z,19.53
2018-11-04T01:26:42.939Z,19.52
2018-11-04T01:27:46.371Z,19.51
2018-11-04T01:28:49.761Z,19.50
2018-11-04T01:29:53.186Z,19.50
2018-11-04T01:30:56.570Z,19.49
2018-11-04T01:32:00.238Z,19.48
2018-11-04T01:33:03.690Z,19.47
2018-11-04T01:34:07.422Z,19.47
2018-11-04T01:35:10.824Z,19.46
2018-11-04T01:36:14.236Z,19.46
2018-11-04T01:37:17.647Z,19.45
2018-11-04T01:38:21.040Z,19.45
2018-11-04T01:39:24.460Z,19.44
2018-11-04T01:40:27.871Z,19.42
2018-11-04T01:41:31.281Z,19.43
2018-11-04T01:42:34.786Z,19.41
2018-11-04T01:43:38.229Z,19.41
2018-11-04T01:44:41.625Z,19.40
2018-11-04T01:45:45.056Z,19.40
2018-11-04T01:46:48.442Z,19.40
2018-11-04T01:47:51.829Z,19.40
2018-11-04T01:48:55.287Z,19.39
2018-11-04T01:49:58.677Z,19.36
2018-11-04T01:51:02.137Z,19.37
2018-11-04T01:52:06.083Z,19.36
2018-11-04T01:53:09.603Z,19.35
2018-11-04T01:54:13.272Z,19.34
2018-11-04T01:55:16.669Z,19.34
2018-11-04T01:56:20.094Z,19.33
2018-11-04T01:57:23.555Z,19.33
2018-11-04T01:58:26.995Z,19.32
2018-11-04T01:59:30.423Z,19.32
2018-11-04T02:00:33.883Z,19.30
2018-11-04T02:01:37.292Z,19.31
2018-11-04T02:02:41.034Z,19.30
2018-11-04T02:03:44.510Z,19.29
2018-11-04T02:04:47.935Z,19.30
2018-11-04T02:05:51.335Z,19.28
2018-11-04T02:06:54.710Z,19.27
2018-11-04T02:07:58.137Z,19.27
2018-11-04T02:09:01.520Z,19.27
2018-11-04T02:10:05.481Z,19.25
2018-11-04T02:11:08.888Z,19.25
2018-11-04T02:12:12.328Z,19.24
2018-11-04T02:13:15.724Z,19.22
2018-11-04T02:14:19.137Z,19.21
2018-11-04T02:15:22.569Z,19.20
2018-11-04T02:16:25.978Z,19.19
2018-11-04T02:17:29.392Z,19.18
2018-11-04T02:18:32.856Z,19.16
2018-11-04T02:19:36.733Z,19.16
2018-11-04T02:20:40.246Z,19.15
2018-11-04T02:21:43.641Z,19.14
2018-11-04T02:22:47.010Z,19.14
2018-11-04T02:23:50.523Z,19.14
2018-11-04T02:24:53.960Z,19.12
2018-11-04T02:25:57.402Z,19.13
2018-11-04T02:27:00.843Z,19.12
2018-11-04T02:28:04.351Z,19.13
2018-11-04T02:29:07.943Z,19.11
2018-11-04T02:30:12.968Z,19.11
2018-11-04T02:31:16.401Z,19.12
2018-11-04T02:32:20.131Z,19.11
2018-11-04T02:33:23.570Z,19.13
2018-11-04T02:34:27.026Z,19.11
2018-11-04T02:35:30.429Z,19.10
2018-11-04T02:36:34.456Z,19.10
2018-11-04T02:37:37.963Z,19.09
2018-11-04T02:38:41.391Z,19.09
2018-11-04T02:39:44.861Z,19.08
2018-11-04T02:40:48.241Z,19.07
2018-11-04T02:41:51.652Z,19.05
2018-11-04T02:42:55.074Z,19.05
2018-11-04T02:43:58.455Z,19.04
2018-11-04T02:45:01.840Z,19.04
2018-11-04T02:46:06.350Z,19.03
2018-11-04T02:47:09.937Z,19.03
2018-11-04T02:48:13.262Z,19.01
2018-11-04T02:49:16.692Z,19.00
2018-11-04T02:50:20.119Z,19.00
2018-11-04T02:51:23.551Z,19.00
2018-11-04T02:52:26.958Z,19.01
2018-11-04T02:53:30.401Z,18.99
2018-11-04T02:54:33.835Z,18.98
2018-11-04T02:55:37.260Z,18.97
2018-11-04T02:56:40.688Z,18.97
2018-11-04T02:57:44.086Z,18.97
2018-11-04T02:58:47.450Z,18.97
2018-11-04T02:59:50.890Z,18.96
2018-11-04T03:00:54.315Z,18.96
2018-11-04T03:01:57.764Z,18.96
2018-11-04T03:03:01.162Z,18.95
2018-11-04T03:04:04.969Z,18.95
2018-11-04T03:05:09.599Z,18.94
2018-11-04T03:06:13.036Z,18.95
2018-11-04T03:07:16.473Z,18.94
2018-11-04T03:08:19.929Z,18.94
2018-11-04T03:09:23.345Z,18.93
2018-11-04T03:10:26.721Z,18.93
2018-11-04T03:11:30.164Z,18.92
2018-11-04T03:12:33.845Z,18.91
2018-11-04T03:13:37.321Z,18.91
2018-11-04T03:14:40.731Z,18.88
2018-11-04T03:15:44.219Z,18.89
2018-11-04T03:16:47.703Z,18.89
2018-11-04T03:17:51.081Z,18.87
2018-11-04T03:18:54.430Z,18.87
2018-11-04T03:19:57.912Z,18.85
2018-11-04T03:21:01.412Z,18.85
2018-11-04T03:22:05.380Z,18.85
2018-11-04T03:23:08.992Z,18.84
2018-11-04T03:24:12.589Z,18.82
2018-11-04T03:25:15.989Z,18.82
2018-11-04T03:26:19.386Z,18.82
2018-11-04T03:27:22.811Z,18.82
2018-11-04T03:28:26.245Z,18.80
2018-11-04T03:29:29.645Z,18.80
2018-11-04T03:30:33.224Z,18.80
2018-11-04T03:31:36.735Z,18.78
2018-11-04T03:32:40.204Z,18.76
2018-11-04T03:33:43.795Z,18.76
2018-11-04T03:34:47.201Z,18.75
2018-11-04T03:35:50.621Z,18.75
2018-11-04T03:36:54.120Z,18.75
2018-11-04T03:37:57.586Z,18.74
2018-11-04T03:39:01.026Z,18.74
2018-11-04T03:40:04.858Z,18.74
2018-11-04T03:41:08.270Z,18.73
2018-11-04T03:42:11.665Z,18.73
2018-11-04T03:43:15.059Z,18.73
2018-11-04T03:44:18.471Z,18.73
2018-11-04T03:45:21.898Z,18.72
2018-11-04T03:46:25.296Z,18.71
2018-11-04T03:47:28.695Z,18.71
2018-11-04T03:48:32.168Z,18.71
2018-11-04T03:49:35.640Z,18.70
2018-11-04T03:50:39.068Z,18.70
2018-11-04T03:51:42.465Z,18.70
2018-11-04T03:52:45.887Z,18.69
2018-11-04T03:53:49.267Z,18.69
2018-11-04T03:54:52.653Z,18.69
2018-11-04T03:55:56.089Z,18.67
2018-11-04T03:56:59.486Z,18.69
2018-11-04T03:58:03.336Z,18.70
2018-11-04T03:59:06.926Z,18.70
2018-11-04T04:00:12.077Z,18.71
2018-11-04T04:01:15.495Z,18.71
2018-11-04T04:02:18.906Z,18.70
2018-11-04T04:03:22.416Z,18.71
2018-11-04T04:04:25.838Z,18.72
2018-11-04T04:05:29.373Z,18.72
2018-11-04T04:06:32.776Z,18.70
2018-11-04T04:07:36.234Z,18.71
2018-11-04T04:08:39.690Z,18.70
2018-11-04T04:09:43.084Z,18.71
2018-11-04T04:10:46.537Z,18.71
2018-11-04T04:11:49.929Z,18.70
2018-11-04T04:12:53.336Z,18.69
2018-11-04T04:13:56.729Z,18.70
2018-11-04T04:15:00.088Z,18.70
2018-11-04T04:16:03.536Z,18.69
2018-11-04T04:17:07.041Z,18.69
2018-11-04T04:18:10.788Z,18.69
2018-11-04T04:19:14.156Z,18.69
2018-11-04T04:20:17.554Z,18.68
2018-11-04T04:21:20.960Z,18.69
2018-11-04T04:22:24.365Z,18.69
2018-11-04T04:23:27.921Z,18.67
2018-11-04T04:24:31.331Z,18.66
2018-11-04T04:25:35.342Z,18.66
2018-11-04T04:26:39.097Z,18.65
2018-11-04T04:27:42.484Z,18.64
2018-11-04T04:28:45.889Z,18.62
2018-11-04T04:29:49.271Z,18.62
2018-11-04T04:30:52.670Z,18.61
2018-11-04T04:31:56.091Z,18.62
2018-11-04T04:32:59.478Z,18.62
2018-11-04T04:34:02.887Z,18.63
2018-11-04T04:35:07.501Z,18.62
2018-11-04T04:36:10.874Z,18.61
2018-11-04T04:37:14.318Z,18.61
2018-11-04T04:38:17.733Z,18.61
2018-11-04T04:39:21.106Z,18.62
2018-11-04T04:40:24.528Z,18.61
2018-11-04T04:41:27.906Z,18.60
2018-11-04T04:42:31.312Z,18.60
2018-11-04T04:43:34.740Z,18.61
2018-11-04T04:44:38.155Z,18.58
2018-11-04T04:45:41.641Z,18.59
2018-11-04T04:46:45.021Z,18.59
2018-11-04T04:47:48.458Z,18.59
2018-11-04T04:48:51.977Z,18.58
2018-11-04T04:49:55.461Z,18.58
2018-11-04T04:50:58.891Z,18.57
2018-11-04T04:52:02.255Z,18.57
2018-11-04T04:53:06.028Z,18.57
2018-11-04T04:54:09.427Z,18.57
2018-11-04T04:55:12.811Z,18.58
2018-11-04T04:56:16.215Z,18.57
2018-11-04T04:57:19.611Z,18.56
2018-11-04T04:58:23.370Z,18.58
2018-11-04T04:59:26.741Z,18.57
2018-11-04T05:00:30.152Z,18.57
2018-11-04T05:01:33.583Z,18.57
2018-11-04T05:02:37.006Z,18.56
2018-11-04T05:03:40.436Z,18.56
2018-11-04T05:04:43.858Z,18.56
2018-11-04T05:05:47.291Z,18.56
2018-11-04T05:06:50.672Z,18.57
2018-11-04T05:07:54.116Z,18.55
2018-11-04T05:08:57.630Z,18.56
2018-11-04T05:10:01.046Z,18.56
2018-11-04T05:11:04.527Z,18.56
2018-11-04T05:12:07.966Z,18.56
2018-11-04T05:13:11.388Z,18.56
2018-11-04T05:14:14.812Z,18.55
2018-11-04T05:15:18.277Z,18.55
2018-11-04T05:16:21.831Z,18.54
2018-11-04T05:17:25.276Z,18.54
2018-11-04T05:18:28.686Z,18.53
2018-11-04T05:19:32.075Z,18.53
2018-11-04T05:20:35.476Z,18.51
2018-11-04T05:21:38.848Z,18.52
2018-11-04T05:22:42.485Z,18.51
2018-11-04T05:23:45.888Z,18.51
2018-11-04T05:24:49.288Z,18.50
2018-11-04T05:25:52.744Z,18.49
2018-11-04T05:26:56.122Z,18.48
2018-11-04T05:27:59.546Z,18.48
2018-11-04T05:29:03.028Z,18.47
2018-11-04T05:30:08.701Z,18.46
2018-11-04T05:31:12.114Z,18.46
2018-11-04T05:32:15.505Z,18.45
2018-11-04T05:33:18.940Z,18.44
2018-11-04T05:34:22.455Z,18.44
2018-11-04T05:35:25.942Z,18.44
2018-11-04T05:36:29.362Z,18.44
2018-11-04T05:37:32.766Z,18.43
2018-11-04T05:38:36.178Z,18.42
2018-11-04T05:39:39.671Z,18.41
2018-11-04T05:40:43.116Z,18.41
2018-11-04T05:41:46.559Z,18.39
2018-11-04T05:42:50.058Z,18.40
2018-11-04T05:43:53.556Z,18.40
2018-11-04T05:44:57.038Z,18.39
2018-11-04T05:46:00.420Z,18.38
2018-11-04T05:47:03.839Z,18.38
2018-11-04T05:48:07.239Z,18.37
2018-11-04T05:49:10.649Z,18.37
2018-11-04T05:50:14.033Z,18.37
2018-11-04T05:51:17.457Z,18.36
2018-11-04T05:52:21.362Z,18.36
2018-11-04T05:53:24.784Z,18.36
2018-11-04T05:54:28.171Z,18.36
2018-11-04T05:55:31.615Z,18.34
2018-11-04T05:56:35.292Z,18.34
2018-11-04T05:57:38.839Z,18.34
2018-11-04T05:58:42.395Z,18.35
2018-11-04T05:59:45.915Z,18.33
2018-11-04T06:00:49.373Z,18.33
2018-11-04T06:01:52.819Z,18.33
2018-11-04T06:02:56.192Z,18.32
2018-11-04T06:03:59.707Z,18.32
2018-11-04T06:05:03.169Z,18.32
2018-11-04T06:06:06.649Z,18.30
2018-11-04T06:07:10.558Z,18.30
2018-11-04T06:08:13.921Z,18.29
2018-11-04T06:09:17.360Z,18.29
2018-11-04T06:10:20.771Z,18.30
2018-11-04T06:11:24.243Z,18.29
2018-11-04T06:12:27.648Z,18.28
2018-11-04T06:13:31.040Z,18.28
2018-11-04T06:14:34.418Z,18.28
2018-11-04T06:15:38.040Z,18.26
2018-11-04T06:16:41.441Z,18.27
2018-11-04T06:17:44.940Z,18.25
2018-11-04T06:18:48.340Z,18.25
2018-11-04T06:19:51.755Z,18.24
2018-11-04T06:20:55.136Z,18.24
2018-11-04T06:21:58.700Z,18.24
2018-11-04T06:23:02.095Z,18.24
2018-11-04T06:24:05.791Z,18.23
2018-11-04T06:25:09.385Z,18.23
2018-11-04T06:26:12.836Z,18.23
2018-11-04T06:27:16.198Z,18.23
2018-11-04T06:28:19.700Z,18.23
2018-11-04T06:29:23.139Z,18.23
2018-11-04T06:30:26.692Z,18.21
2018-11-04T06:31:30.079Z,18.21
2018-11-04T06:32:33.461Z,18.20
2018-11-04T06:33:36.951Z,18.20
2018-11-04T06:34:40.367Z,18.19
2018-11-04T06:35:43.778Z,18.18
2018-11-04T06:36:47.204Z,18.17
2018-11-04T06:37:50.632Z,18.16
2018-11-04T06:38:54.040Z,18.18
2018-11-04T06:39:57.680Z,18.15
2018-11-04T06:41:01.119Z,18.15
2018-11-04T06:42:04.637Z,18.15
2018-11-04T06:43:08.071Z,18.16
2018-11-04T06:44:11.457Z,18.16
2018-11-04T06:45:14.884Z,18.16
2018-11-04T06:46:18.282Z,18.17
2018-11-04T06:47:21.733Z,18.17
2018-11-04T06:48:25.160Z,18.17
2018-11-04T06:49:28.611Z,18.17
2018-11-04T06:50:32.068Z,18.16
2018-11-04T06:51:35.633Z,18.17
2018-11-04T06:52:39.112Z,18.16
2018-11-04T06:53:42.506Z,18.17
2018-11-04T06:54:45.939Z,18.16
2018-11-04T06:55:49.379Z,18.15
2018-11-04T06:56:52.805Z,18.14
2018-11-04T06:57:56.226Z,18.14
2018-11-04T06:58:59.643Z,18.13
2018-11-04T07:00:03.181Z,18.13
2018-11-04T07:01:06.522Z,18.12
2018-11-04T07:02:09.954Z,18.12
2018-11-04T07:03:13.361Z,18.11
2018-11-04T07:04:25.528Z,18.10
2018-11-04T07:05:28.934Z,18.10
2018-11-04T07:06:32.344Z,18.10
2018-11-04T07:07:36.011Z,18.10
2018-11-04T07:08:39.417Z,18.09
2018-11-04T07:09:42.850Z,18.09
2018-11-04T07:10:46.264Z,18.09
2018-11-04T07:11:50.234Z,18.08
2018-11-04T07:12:53.620Z,18.09
2018-11-04T07:13:57.065Z,18.07
2018-11-04T07:15:00.480Z,18.08
2018-11-04T07:16:03.872Z,18.08
2018-11-04T07:17:07.267Z,18.06
2018-11-04T07:18:10.764Z,18.08
2018-11-04T07:19:14.827Z,18.08
2018-11-04T07:20:18.233Z,18.08
2018-11-04T07:21:21.633Z,18.05
2018-11-04T07:22:25.023Z,18.07
2018-11-04T07:23:28.412Z,18.06
2018-11-04T07:24:31.840Z,18.07
2018-11-04T07:25:35.291Z,18.05
2018-11-04T07:26:38.738Z,18.05
2018-11-04T07:27:42.118Z,18.05
2018-11-04T07:28:45.489Z,18.06
2018-11-04T07:29:48.883Z,18.05
2018-11-04T07:30:52.277Z,18.04
2018-11-04T07:31:55.690Z,18.06
2018-11-04T07:32:59.103Z,18.06
2018-11-04T07:34:02.515Z,18.08
2018-11-04T07:35:06.698Z,18.09
2018-11-04T07:36:10.104Z,18.09
2018-11-04T07:37:13.537Z,18.09
2018-11-04T07:38:16.901Z,18.11
2018-11-04T07:39:20.334Z,18.11
2018-11-04T07:40:23.793Z,18.12
2018-11-04T07:41:27.224Z,18.15
2018-11-04T07:42:30.758Z,18.16
2018-11-04T07:43:34.187Z,18.18
2018-11-04T07:44:37.811Z,18.18
2018-11-04T07:45:41.207Z,18.23
2018-11-04T07:46:44.590Z,18.23
2018-11-04T07:47:48.001Z,18.26
2018-11-04T07:48:51.446Z,18.27
2018-11-04T07:49:54.830Z,18.27
2018-11-04T07:50:58.247Z,18.22
2018-11-04T07:52:01.650Z,18.21
2018-11-04T07:53:05.501Z,18.17
2018-11-04T07:54:08.910Z,18.14
2018-11-04T07:55:12.311Z,18.14
2018-11-04T07:56:16.226Z,18.15
2018-11-04T07:57:19.893Z,18.19
2018-11-04T07:58:23.355Z,18.27
2018-11-04T07:59:26.745Z,18.33
2018-11-04T08:00:30.144Z,18.38
2018-11-04T08:01:33.711Z,18.41
2018-11-04T08:02:37.332Z,18.45
2018-11-04T08:03:40.768Z,18.47
2018-11-04T08:04:44.183Z,18.47
2018-11-04T08:05:47.628Z,18.50
2018-11-04T08:06:51.027Z,18.50
2018-11-04T08:07:54.446Z,18.51
2018-11-04T08:08:57.990Z,18.52
2018-11-04T08:10:01.429Z,18.51
2018-11-04T08:11:05.216Z,18.51
2018-11-04T08:12:08.931Z,18.52
2018-11-04T08:13:12.294Z,18.51
2018-11-04T08:14:15.684Z,18.50
2018-11-04T08:15:19.079Z,18.50
2018-11-04T08:16:22.489Z,18.47
2018-11-04T08:17:26.285Z,18.50
2018-11-04T08:18:29.680Z,18.48
2018-11-04T08:19:33.282Z,18.46
2018-11-04T08:20:36.900Z,18.48
2018-11-04T08:21:40.342Z,18.47
2018-11-04T08:22:43.757Z,18.47
2018-11-04T08:23:47.159Z,18.49
2018-11-04T08:24:51.376Z,18.50
2018-11-04T08:25:54.766Z,18.54
2018-11-04T08:26:58.227Z,18.53
2018-11-04T08:28:01.703Z,18.50
2018-11-04T08:29:05.207Z,18.50
2018-11-04T08:30:09.302Z,18.46
2018-11-04T08:31:12.707Z,18.43
2018-11-04T08:32:16.275Z,18.42
2018-11-04T08:33:20.015Z,18.40
2018-11-04T08:34:23.486Z,18.38
2018-11-04T08:35:26.920Z,18.38
2018-11-04T08:36:30.359Z,18.37
2018-11-04T08:37:33.989Z,18.36
2018-11-04T08:38:37.427Z,18.38
2018-11-04T08:39:41.082Z,18.44
2018-11-04T08:40:44.454Z,18.47
2018-11-04T08:41:47.893Z,18.47
2018-11-04T08:42:51.318Z,18.50
2018-11-04T08:43:54.693Z,18.51
2018-11-04T08:44:58.108Z,18.52
2018-11-04T08:46:01.654Z,18.51
2018-11-04T08:47:05.686Z,18.51
2018-11-04T08:48:09.503Z,18.51
2018-11-04T08:49:12.915Z,18.52
2018-11-04T08:50:16.325Z,18.52
2018-11-04T08:51:19.747Z,18.53
2018-11-04T08:52:23.165Z,18.52
2018-11-04T08:53:26.767Z,18.53
2018-11-04T08:54:30.156Z,18.52
2018-11-04T08:55:33.638Z,18.48
2018-11-04T08:56:37.063Z,18.45
2018-11-04T08:57:40.641Z,18.44
2018-11-04T08:58:44.067Z,18.44
2018-11-04T08:59:47.486Z,18.43
2018-11-04T09:00:50.941Z,18.41
2018-11-04T09:01:54.344Z,18.42
2018-11-04T09:02:57.939Z,18.42
2018-11-04T09:04:01.363Z,18.41
2018-11-04T09:05:05.215Z,18.43
2018-11-04T09:06:08.648Z,18.42
2018-11-04T09:07:12.063Z,18.43
2018-11-04T09:08:15.540Z,18.43
2018-11-04T09:09:18.955Z,18.43
2018-11-04T09:10:22.366Z,18.43
2018-11-04T09:11:25.775Z,18.42
2018-11-04T09:12:29.201Z,18.41
2018-11-04T09:13:32.676Z,18.39
2018-11-04T09:14:36.779Z,18.38
2018-11-04T09:15:40.211Z,18.36
2018-11-04T09:16:43.626Z,18.35
2018-11-04T09:17:47.019Z,18.33
2018-11-04T09:18:50.505Z,18.31
2018-11-04T09:19:53.892Z,18.29
2018-11-04T09:20:57.288Z,18.28
2018-11-04T09:22:00.949Z,18.26
2018-11-04T09:23:04.359Z,18.25
2018-11-04T09:24:07.933Z,18.25
2018-11-04T09:25:12.166Z,18.23
2018-11-04T09:26:15.617Z,18.22
2018-11-04T09:27:19.065Z,18.21
2018-11-04T09:28:22.571Z,18.19
2018-11-04T09:29:26.019Z,18.18
2018-11-04T09:30:29.425Z,18.16
2018-11-04T09:31:32.861Z,18.16
2018-11-04T09:32:36.474Z,18.13
2018-11-04T09:33:39.892Z,18.12
2018-11-04T09:34:43.477Z,18.12
2018-11-04T09:35:47.049Z,18.11
2018-11-04T09:36:50.368Z,18.10
2018-11-04T09:37:53.816Z,18.09
2018-11-04T09:38:57.284Z,18.07
2018-11-04T09:40:00.727Z,18.07
2018-11-04T09:41:04.201Z,18.06
2018-11-04T09:42:07.704Z,18.06
2018-11-04T09:43:11.269Z,18.04
2018-11-04T09:44:14.718Z,18.04
2018-11-04T09:45:18.133Z,18.03
2018-11-04T09:46:21.566Z,18.02
2018-11-04T09:47:25.044Z,18.01
2018-11-04T09:48:28.437Z,18.01
2018-11-04T09:49:31.999Z,18.00
2018-11-04T09:50:35.768Z,17.99
2018-11-04T09:51:43.068Z,17.99
2018-11-04T09:52:46.526Z,17.98
2018-11-04T09:53:50.480Z,17.97
2018-11-04T09:54:53.910Z,17.98
2018-11-04T09:55:57.357Z,17.96
2018-11-04T09:57:00.898Z,17.96
2018-11-04T09:58:04.339Z,17.96
2018-11-04T09:59:07.804Z,17.94
2018-11-04T10:00:12.405Z,17.94
2018-11-04T10:01:15.872Z,17.94
2018-11-04T10:02:19.680Z,17.93
2018-11-04T10:03:23.124Z,17.92
2018-11-04T10:04:26.569Z,17.91
2018-11-04T10:05:30.037Z,17.91
2018-11-04T10:06:33.473Z,17.91
2018-11-04T10:07:37.252Z,17.90
2018-11-04T10:08:40.671Z,17.88
2018-11-04T10:09:44.164Z,17.87
2018-11-04T10:10:47.571Z,17.87
2018-11-04T10:11:51.136Z,17.86
2018-11-04T10:12:54.535Z,17.86
2018-11-04T10:13:58.110Z,17.85
2018-11-04T10:15:01.552Z,17.84
2018-11-04T10:16:05.286Z,17.85
2018-11-04T10:17:08.691Z,17.83
2018-11-04T10:18:12.105Z,17.83
2018-11-04T10:19:15.758Z,17.82
2018-11-04T10:20:19.417Z,17.80
2018-11-04T10:21:22.584Z,17.81
2018-11-04T10:22:25.992Z,17.80
2018-11-04T10:23:29.478Z,17.78
2018-11-04T10:24:33.051Z,17.78
2018-11-04T10:25:36.471Z,17.76
2018-11-04T10:26:40.085Z,17.77
2018-11-04T10:27:43.622Z,17.77
2018-11-04T10:28:47.059Z,17.75
2018-11-04T10:29:50.453Z,17.75
2018-11-04T10:30:53.941Z,17.73
2018-11-04T10:31:57.383Z,17.73
2018-11-04T10:33:00.881Z,17.73
2018-11-04T10:34:05.040Z,17.73
2018-11-04T10:35:09.323Z,17.72
2018-11-04T10:36:12.808Z,17.71
2018-11-04T10:37:16.292Z,17.70
2018-11-04T10:38:19.751Z,17.68
2018-11-04T10:39:23.204Z,17.69
2018-11-04T10:40:26.625Z,17.71
2018-11-04T10:41:30.061Z,17.73
2018-11-04T10:42:33.555Z,17.76
2018-11-04T10:43:37.277Z,17.79
2018-11-04T10:44:40.960Z,17.84
2018-11-04T10:45:44.374Z,17.87
2018-11-04T10:46:47.875Z,17.92
2018-11-04T10:47:52.915Z,17.96
2018-11-04T10:48:56.348Z,17.97
2018-11-04T10:49:59.736Z,18.01
2018-11-04T10:51:03.218Z,18.03
2018-11-04T10:52:06.950Z,18.06
2018-11-04T10:53:10.386Z,18.07
2018-11-04T10:54:13.819Z,18.09
2018-11-04T10:55:17.280Z,18.10
2018-11-04T10:56:20.822Z,18.12
2018-11-04T10:57:24.409Z,18.13
2018-11-04T10:58:27.918Z,18.13
2018-11-04T10:59:31.482Z,18.13
2018-11-04T11:01:09.348Z,18.15
2018-11-04T11:02:12.829Z,18.15
2018-11-04T11:03:16.253Z,18.15
2018-11-04T11:04:19.756Z,18.14
2018-11-04T11:05:23.245Z,18.13
2018-11-04T11:06:26.865Z,18.13
2018-11-04T11:07:30.333Z,18.13
2018-11-04T11:08:34.388Z,18.14
2018-11-04T11:09:38.152Z,18.12
2018-11-04T11:10:41.794Z,18.12
2018-11-04T11:11:45.305Z,18.10
2018-11-04T11:12:49.129Z,18.10
2018-11-04T11:13:52.579Z,18.08
2018-11-04T11:14:56.040Z,18.08
2018-11-04T11:15:59.771Z,18.06
2018-11-04T11:17:03.206Z,18.06
2018-11-04T11:18:06.658Z,18.05
2018-11-04T11:19:10.120Z,18.04
2018-11-04T11:20:13.683Z,18.03
2018-11-04T11:21:17.281Z,18.03
2018-11-04T11:22:20.776Z,18.02
2018-11-04T11:23:24.387Z,18.01
2018-11-04T11:24:27.901Z,18.00
2018-11-04T11:25:31.305Z,17.99
2018-11-04T11:26:34.709Z,17.98
2018-11-04T11:27:38.233Z,17.98
2018-11-04T11:28:41.656Z,17.97
2018-11-04T11:29:45.165Z,17.95
2018-11-04T11:30:48.640Z,17.95
2018-11-04T11:31:52.010Z,17.93
2018-11-04T11:32:55.486Z,17.93
2018-11-04T11:33:58.904Z,17.92
2018-11-04T11:35:02.361Z,17.92
2018-11-04T11:36:06.288Z,17.92
2018-11-04T11:37:09.730Z,17.90
2018-11-04T11:38:13.120Z,17.90
2018-11-04T11:39:16.474Z,17.89
2018-11-04T11:40:20.176Z,17.87
2018-11-04T11:41:23.604Z,17.87
2018-11-04T11:42:27.090Z,17.87
2018-11-04T11:43:30.474Z,17.85
2018-11-04T11:44:34.418Z,17.85
2018-11-04T11:45:37.923Z,17.83
2018-11-04T11:46:41.525Z,17.84
2018-11-04T11:47:44.997Z,17.87
2018-11-04T11:48:48.474Z,17.94
2018-11-04T11:49:51.879Z,17.98
2018-11-04T11:50:55.368Z,18.03
2018-11-04T11:51:59.082Z,18.09
2018-11-04T11:53:02.513Z,18.17
2018-11-04T11:54:06.598Z,18.23
2018-11-04T11:55:10.023Z,18.34
2018-11-04T11:56:13.469Z,18.39
2018-11-04T11:57:16.983Z,18.50
2018-11-04T11:58:20.396Z,18.59
2018-11-04T11:59:23.914Z,18.70
2018-11-04T12:00:27.394Z,18.77
2018-11-04T12:01:30.857Z,18.84
2018-11-04T12:02:34.627Z,18.89
2018-11-04T12:03:38.082Z,18.91
2018-11-04T12:04:42.027Z,18.98
2018-11-04T12:05:46.771Z,19.04
2018-11-04T12:06:51.378Z,19.09
2018-11-04T12:07:56.153Z,19.12
2018-11-04T12:09:00.635Z,19.17
2018-11-04T12:10:04.797Z,19.18
2018-11-04T12:11:08.762Z,19.24
2018-11-04T12:12:13.440Z,19.25
2018-11-04T12:13:17.521Z,19.30
2018-11-04T12:14:21.027Z,19.32
2018-11-04T12:15:26.486Z,19.39
2018-11-04T12:16:30.156Z,19.47
2018-11-04T12:17:34.352Z,19.49
2018-11-04T12:18:38.668Z,19.51
2018-11-04T12:19:43.095Z,19.55
2018-11-04T12:20:47.297Z,19.58
2018-11-04T12:21:50.703Z,19.62
2018-11-04T12:22:54.380Z,19.62
2018-11-04T12:23:57.885Z,19.63
2018-11-04T12:25:01.548Z,19.63
2018-11-04T12:26:06.903Z,19.63
2018-11-04T12:27:10.332Z,19.65
2018-11-04T12:28:13.797Z,19.65
2018-11-04T12:29:17.360Z,19.69
2018-11-04T12:30:21.144Z,19.70
2018-11-04T12:31:24.537Z,19.75
2018-11-04T12:32:28.009Z,19.79
2018-11-04T12:33:31.559Z,19.81
2018-11-04T12:34:35.068Z,19.85
2018-11-04T12:35:38.623Z,19.88
2018-11-04T12:36:42.046Z,19.90
2018-11-04T12:37:45.720Z,19.89
2018-11-04T12:38:49.146Z,19.92
2018-11-04T12:39:52.560Z,19.93
2018-11-04T12:40:55.957Z,19.93
2018-11-04T12:41:59.356Z,19.94
2018-11-04T12:43:02.745Z,19.93
2018-11-04T12:44:06.744Z,19.95
2018-11-04T12:45:11.656Z,19.97
2018-11-04T12:46:15.144Z,19.99
2018-11-04T12:47:18.545Z,20.02
2018-11-04T12:48:21.967Z,20.00
2018-11-04T12:49:25.387Z,20.00
2018-11-04T12:50:28.795Z,20.01
2018-11-04T12:51:32.226Z,20.01
2018-11-04T12:52:35.659Z,20.00
2018-11-04T12:53:39.099Z,20.02
2018-11-04T12:54:42.583Z,20.00
2018-11-04T12:55:46.011Z,19.99
2018-11-04T12:56:49.504Z,19.97
2018-11-04T12:57:52.908Z,19.94
2018-11-04T12:58:56.346Z,19.94
2018-11-04T12:59:59.804Z,19.92
2018-11-04T13:01:03.297Z,19.93
2018-11-04T13:02:06.927Z,19.94
2018-11-04T13:03:10.299Z,19.97
2018-11-04T13:04:13.678Z,19.98
2018-11-04T13:05:17.273Z,20.01
2018-11-04T13:06:20.924Z,20.03
2018-11-04T13:07:24.307Z,20.04
2018-11-04T13:08:27.697Z,20.09
2018-11-04T13:09:31.130Z,20.13
2018-11-04T13:10:37.113Z,20.16
2018-11-04T13:11:42.702Z,20.19
2018-11-04T13:12:46.143Z,20.21
2018-11-04T13:13:49.602Z,20.22
2018-11-04T13:14:53.083Z,20.22
2018-11-04T13:15:56.513Z,20.24
2018-11-04T13:17:00.059Z,20.24
2018-11-04T13:18:03.458Z,20.25
2018-11-04T13:19:06.901Z,20.25
2018-11-04T13:20:10.344Z,20.25
2018-11-04T13:21:13.846Z,20.23
2018-11-04T13:22:17.312Z,20.23
2018-11-04T13:23:20.708Z,20.21
2018-11-04T13:24:24.248Z,20.23
2018-11-04T13:25:27.687Z,20.21
2018-11-04T13:26:31.163Z,20.20
2018-11-04T13:27:34.662Z,20.20
2018-11-04T13:28:38.155Z,20.19
2018-11-04T13:29:41.536Z,20.18
2018-11-04T13:30:44.977Z,20.19
2018-11-04T13:31:48.432Z,20.21
2018-11-04T13:32:51.882Z,20.21
2018-11-04T13:33:55.304Z,20.25
2018-11-04T13:34:58.701Z,20.27
2018-11-04T13:36:02.137Z,20.27
2018-11-04T13:37:06.383Z,20.27
2018-11-04T13:38:10.137Z,20.28
2018-11-04T13:39:13.594Z,20.28